Ostrander, Ohio
Current Conditions -  °F | °C
As of 12:41 AM on Sunday 21 Dec 2014 (Local Time) from KDLZ Reporting Station
Haze Haze  
Wind Chill: 28°   Ceiling: 3000
Heat Index: 28°   Visibility: 5mi
Dew Point: 27°   Wind: 0mph
Humidity: 93%   Direction: NA
Pressure: 30.28"   Gusts: NA
Location:  40.27°N, 83.21°W
Report Text: KDLZ 210541Z AUTO 00000KT 5SM BR OVC030 M02/M03 A3028 RMK AO2
Loading
Personal Weather Stations






























Interactive Weather Map New forecast layout! Learn more

10-Day Weather Forecast

Advertisements
Track Severe Weather on mobile